Terminal Aerodrome Forecast
Issued by NWS Cleveland, OH

Home | Current Version | Previous Version | Text Only | Print | Product List | Glossary Off
Versions: 1 2 3 4 5 6 7 8 9 10 11 12 13 14 15 16 17 18 19 20

064
FTUS41 KCLE 220530
TAFERI
TAF
KERI 220530Z 2206/2306 18004KT P6SM FEW070 BKN250
     FM221400 VRB04KT P6SM VCTS SCT050CB OVC120
     FM221600 03005KT P6SM -SHRA VCTS SCT035CB OVC050
     FM222000 06005KT P6SM SCT030 BKN040
     FM230100 16004KT P6SM SCT030 BKN040=

USA.gov is the U.S. government's official web portal to all federal, state and local government web resources and services.